Time;durP1;ratioP1;P1;durP2;ratioP2;P2;SDS_P1;SDS_P2;PMS_P1;PMS_P2;Temp;Humidity;BMP_temperature;BMP_pressure;BME280_temperature;BME280_humidity;BME280_pressure;Samples;Min_cycle;Max_cycle;Signal;HPM_P1;HPM_P2
2022/05/27 00:01:28;;;;;;;3.63;1.90;;;14.10;99.90;;;;;;5068899;28;20467;-73
2022/05/27 00:03:56;;;;;;;2.20;1.03;;;14.10;99.90;;;;;;5033641;28;21028;-74
2022/05/27 00:06:22;;;;;;;2.03;1.20;;;14.20;99.90;;;;;;5068463;28;20449;-74
2022/05/27 00:08:47;;;;;;;1.57;1.17;;;14.10;99.90;;;;;;5068616;28;20909;-73
2022/05/27 00:11:13;;;;;;;2.53;1.37;;;14.20;99.90;;;;;;5068790;28;20203;-74
2022/05/27 00:13:39;;;;;;;2.87;1.00;;;14.30;99.90;;;;;;5068314;28;20447;-73
2022/05/27 00:16:05;;;;;;;5.07;1.57;;;14.30;99.90;;;;;;5068339;28;20180;-75
2022/05/27 00:18:31;;;;;;;3.80;1.53;;;14.40;99.90;;;;;;5068176;28;20818;-79
2022/05/27 00:20:57;;;;;;;2.30;0.90;;;14.30;99.90;;;;;;5068531;28;20270;-76
2022/05/27 00:23:23;;;;;;;7.63;1.53;;;14.30;99.90;;;;;;5049952;28;20485;-73
2022/05/27 00:25:49;;;;;;;1.83;1.40;;;14.30;99.90;;;;;;5068355;28;20904;-73
2022/05/27 00:28:15;;;;;;;2.80;1.30;;;14.30;99.90;;;;;;5050147;28;20221;-73
2022/05/27 00:30:41;;;;;;;2.03;1.43;;;14.30;99.90;;;;;;5068144;28;20543;-74
2022/05/27 00:33:07;;;;;;;2.40;1.17;;;14.30;99.90;;;;;;5050136;28;20506;-73
2022/05/27 00:35:33;;;;;;;3.80;2.20;;;14.30;99.90;;;;;;5050247;28;20808;-73
2022/05/27 00:37:59;;;;;;;1.33;1.00;;;14.30;99.90;;;;;;5070585;28;20524;-74
2022/05/27 00:40:32;;;;;;;3.10;1.07;;;14.30;99.90;;;;;;5054506;28;20440;-73
2022/05/27 00:42:58;;;;;;;3.77;1.07;;;14.40;99.90;;;;;;5055148;28;20483;-73
2022/05/27 00:45:25;;;;;;;1.57;1.17;;;14.50;99.90;;;;;;5054582;28;20413;-74
2022/05/27 00:47:54;;;;;;;4.20;0.83;;;14.50;99.90;;;;;;5072929;28;20183;-73
2022/05/27 00:50:25;;;;;;;1.10;0.87;;;14.60;99.90;;;;;;5072956;28;20772;-73
2022/05/27 00:52:51;;;;;;;3.83;1.60;;;14.60;99.90;;;;;;5054375;28;20479;-74
2022/05/27 00:55:22;;;;;;;4.17;1.10;;;14.60;99.90;;;;;;5072421;28;20807;-73
2022/05/27 00:58:02;;;;;;;7.43;1.37;;;14.60;99.90;;;;;;5072286;28;20428;-73
2022/05/27 01:00:28;;;;;;;1.37;1.07;;;14.50;99.90;;;;;;5072208;28;20478;-73
2022/05/27 01:02:55;;;;;;;1.57;1.13;;;14.50;99.90;;;;;;5072363;28;20465;-73
2022/05/27 01:05:22;;;;;;;2.30;1.27;;;14.50;99.90;;;;;;5072309;28;20448;-73
2022/05/27 01:07:55;;;;;;;1.23;1.10;;;14.50;99.90;;;;;;5054385;28;20429;-72
2022/05/27 01:10:23;;;;;;;1.53;1.00;;;14.50;99.90;;;;;;5072539;28;20782;-71
2022/05/27 01:13:27;;;;;;;4.63;1.60;;;14.50;99.90;;;;;;5072251;28;20934;-73
2022/05/27 01:16:12;;;;;;;1.27;0.90;;;14.50;99.90;;;;;;5034617;28;20425;-73
2022/05/27 01:21:46;;;;;;;2.90;1.40;;;14.50;99.90;;;;;;5073266;28;20933;-74
2022/05/27 01:24:37;;;;;;;2.00;1.10;;;14.60;99.90;;;;;;5073000;28;20492;-73
2022/05/27 01:27:23;;;;;;;2.77;1.00;;;14.60;99.90;;;;;;5077407;28;20406;-74
2022/05/27 01:30:17;;;;;;;3.37;1.10;;;14.60;99.90;;;;;;5078698;28;20420;-73
2022/05/27 01:33:06;;;;;;;1.47;1.00;;;14.60;99.90;;;;;;5075308;28;20498;-73
2022/05/27 01:35:35;;;;;;;5.60;1.70;;;14.60;99.90;;;;;;5060114;28;20449;-74
2022/05/27 01:38:09;;;;;;;1.63;1.03;;;14.70;99.90;;;;;;5077276;28;20429;-73
2022/05/27 01:41:23;;;;;;;2.83;1.00;;;14.70;99.90;;;;;;5055425;28;20425;-74
2022/05/27 01:44:00;;;;;;;2.10;1.20;;;14.70;99.90;;;;;;5017455;28;20860;-73
2022/05/27 01:46:33;;;;;;;2.30;1.13;;;14.70;99.90;;;;;;5034458;28;20880;-75
2022/05/27 01:49:13;;;;;;;2.03;1.07;;;14.70;99.90;;;;;;5034795;28;20939;-74
2022/05/27 01:51:44;;;;;;;3.40;1.33;;;14.70;99.90;;;;;;5053036;28;20423;-74
2022/05/27 01:54:31;;;;;;;1.47;1.00;;;14.70;99.90;;;;;;5034587;28;20528;-73
2022/05/27 01:57:06;;;;;;;1.60;1.07;;;14.60;99.90;;;;;;5052419;28;20802;-73
2022/05/27 01:59:46;;;;;;;2.10;1.20;;;14.60;99.90;;;;;;5050850;28;20429;-73
2022/05/27 02:02:21;;;;;;;3.50;1.20;;;14.60;99.90;;;;;;5051571;28;20461;-75
2022/05/27 02:05:07;;;;;;;2.90;1.23;;;14.50;99.90;;;;;;5051691;28;20484;-73
2022/05/27 02:07:42;;;;;;;5.10;1.10;;;14.60;99.90;;;;;;5050273;28;20443;-72
2022/05/27 02:10:29;;;;;;;3.37;1.33;;;14.60;99.90;;;;;;5033384;28;20414;-73
2022/05/27 02:13:07;;;;;;;2.40;1.20;;;14.60;99.90;;;;;;5051031;28;20434;-73
2022/05/27 02:15:40;;;;;;;7.47;0.80;;;14.70;99.90;;;;;;5051071;28;20931;-73
2022/05/27 02:18:22;;;;;;;1.30;0.93;;;14.70;99.90;;;;;;5033342;28;20932;-73
2022/05/27 02:20:58;;;;;;;2.20;1.23;;;14.70;99.90;;;;;;5033118;28;20476;-72
2022/05/27 02:23:56;;;;;;;2.17;1.17;;;14.60;99.90;;;;;;5050851;28;20489;-74
2022/05/27 02:26:27;;;;;;;3.53;1.13;;;14.70;99.90;;;;;;5050555;28;20434;-74
2022/05/27 02:29:01;;;;;;;2.50;1.33;;;14.60;99.90;;;;;;5050720;28;20747;-74
2022/05/27 02:31:35;;;;;;;1.73;1.23;;;14.60;99.90;;;;;;5050765;28;20441;-75
2022/05/27 02:37:18;;;;;;;1.50;1.30;;;14.60;99.90;;;;;;5050566;28;20473;-73
2022/05/27 02:39:44;;;;;;;3.63;1.30;;;14.60;99.90;;;;;;5032657;28;20790;-73
2022/05/27 02:42:10;;;;;;;4.30;1.10;;;14.60;99.90;;;;;;5032118;28;20427;-74
2022/05/27 02:44:59;;;;;;;2.10;1.27;;;14.60;99.90;;;;;;5068730;28;20259;-74
2022/05/27 02:47:57;;;;;;;4.80;1.43;;;14.60;99.90;;;;;;5070104;28;20188;-74
2022/05/27 02:50:43;;;;;;;1.00;0.90;;;14.60;99.90;;;;;;5069979;28;20914;-74
2022/05/27 02:53:26;;;;;;;2.63;1.23;;;14.60;99.90;;;;;;5069647;28;20429;-74
2022/05/27 02:56:25;;;;;;;1.50;1.07;;;14.60;99.90;;;;;;5051602;28;20420;-74
2022/05/27 02:58:53;;;;;;;2.17;1.10;;;14.50;99.90;;;;;;5069411;28;20417;-74
2022/05/27 03:01:19;;;;;;;2.20;0.80;;;14.50;99.90;;;;;;5069003;28;20417;-74
2022/05/27 03:03:45;;;;;;;2.37;1.10;;;14.40;99.90;;;;;;5034562;28;20473;-74
2022/05/27 03:06:26;;;;;;;2.27;1.13;;;14.40;99.90;;;;;;5069200;28;20409;-74
2022/05/27 03:09:17;;;;;;;2.37;1.10;;;14.40;99.90;;;;;;5051054;28;20222;-74
2022/05/27 03:11:54;;;;;;;4.40;2.23;;;14.30;99.90;;;;;;5064930;28;20448;-74
2022/05/27 03:14:44;;;;;;;8.23;1.20;;;14.30;99.90;;;;;;5068916;28;20437;-73
2022/05/27 03:17:43;;;;;;;2.03;1.40;;;14.20;99.90;;;;;;5050819;28;20421;-73
2022/05/27 03:20:39;;;;;;;1.83;1.30;;;14.20;99.90;;;;;;5068995;28;20460;-73
2022/05/27 03:23:31;;;;;;;2.93;1.87;;;14.20;99.90;;;;;;5050642;28;20505;-73
2022/05/27 03:26:20;;;;;;;1.80;1.33;;;14.20;99.90;;;;;;5068895;28;20418;-73
2022/05/27 03:28:54;;;;;;;2.60;1.40;;;14.20;99.90;;;;;;5068967;28;20409;-75
2022/05/27 03:31:43;;;;;;;1.80;1.27;;;14.10;99.90;;;;;;5068880;28;20491;-74
2022/05/27 03:34:14;;;;;;;2.43;1.27;;;14.20;99.90;;;;;;5068728;28;20438;-75
2022/05/27 03:36:44;;;;;;;2.40;1.30;;;14.20;99.90;;;;;;5068780;28;20418;-74
2022/05/27 03:39:41;;;;;;;1.40;1.03;;;14.20;99.90;;;;;;5068641;28;20418;-74
2022/05/27 03:42:08;;;;;;;4.10;1.53;;;14.30;99.90;;;;;;5050363;28;20429;-74
2022/05/27 03:44:34;;;;;;;6.40;1.40;;;14.30;99.90;;;;;;5068507;28;20559;-74
2022/05/27 03:47:01;;;;;;;2.07;1.37;;;14.00;99.90;;;;;;5068703;28;20413;-78
2022/05/27 03:49:27;;;;;;;2.73;1.40;;;13.90;99.90;;;;;;5069447;28;20841;-81
2022/05/27 03:52:01;;;;;;;2.50;1.23;;;13.70;99.90;;;;;;5069649;28;20413;-79
2022/05/27 03:54:26;;;;;;;1.87;1.10;;;13.60;99.90;;;;;;5069630;28;20440;-80
2022/05/27 03:56:52;;;;;;;1.80;1.00;;;13.60;99.90;;;;;;5069102;28;20444;-79
2022/05/27 03:59:19;;;;;;;3.20;1.53;;;13.60;99.90;;;;;;5050504;28;20187;-78
2022/05/27 04:01:48;;;;;;;2.03;1.40;;;13.60;99.90;;;;;;5068774;28;20413;-79
2022/05/27 04:04:17;;;;;;;2.37;1.20;;;13.50;99.90;;;;;;5068654;28;21203;-79
2022/05/27 04:06:43;;;;;;;1.90;1.40;;;13.50;99.90;;;;;;5050558;28;20853;-77
2022/05/27 04:09:09;;;;;;;5.20;1.37;;;13.60;99.90;;;;;;5068940;28;20413;-77
2022/05/27 04:11:36;;;;;;;2.17;1.97;;;13.70;99.90;;;;;;5068797;28;20414;-77
2022/05/27 04:14:02;;;;;;;1.93;1.30;;;13.90;99.90;;;;;;5054531;28;20445;-78
2022/05/27 04:16:27;;;;;;;1.33;1.23;;;13.90;99.90;;;;;;5054850;28;20429;-78
2022/05/27 04:18:53;;;;;;;2.50;1.30;;;14.00;99.90;;;;;;5072591;28;20428;-76
2022/05/27 04:21:19;;;;;;;1.60;1.40;;;14.20;99.90;;;;;;5072188;28;20652;-76
2022/05/27 04:23:45;;;;;;;2.63;1.30;;;14.30;99.90;;;;;;5053929;28;20695;-77
2022/05/27 04:26:11;;;;;;;1.47;1.10;;;14.40;99.90;;;;;;5054025;28;20621;-76
2022/05/27 04:28:37;;;;;;;6.20;1.50;;;14.50;99.90;;;;;;5072041;28;20173;-76
2022/05/27 04:31:04;;;;;;;2.20;1.47;;;14.50;99.90;;;;;;5054490;28;20421;-80
2022/05/27 04:33:30;;;;;;;3.93;1.33;;;14.40;99.90;;;;;;5072759;28;20495;-79
2022/05/27 04:35:57;;;;;;;5.77;1.30;;;14.40;99.90;;;;;;5053788;28;20417;-75
2022/05/27 04:38:23;;;;;;;2.70;1.40;;;14.40;99.90;;;;;;5053750;28;20377;-76
2022/05/27 04:40:49;;;;;;;2.10;1.10;;;14.50;99.90;;;;;;5072076;28;20432;-77
2022/05/27 04:43:16;;;;;;;3.43;1.43;;;14.50;99.90;;;;;;5053256;28;21000;-77
2022/05/27 04:45:42;;;;;;;2.67;1.47;;;14.50;99.90;;;;;;5072187;28;20194;-77
2022/05/27 04:48:09;;;;;;;3.73;2.07;;;14.50;99.90;;;;;;5053841;28;20432;-77
2022/05/27 04:50:35;;;;;;;2.93;1.77;;;14.50;99.90;;;;;;5071685;28;20405;-74
2022/05/27 04:53:01;;;;;;;2.60;1.40;;;14.50;99.90;;;;;;5071803;28;20868;-77
2022/05/27 04:55:30;;;;;;;5.17;1.63;;;14.50;99.90;;;;;;5071572;28;20504;-75
2022/05/27 04:57:56;;;;;;;4.10;1.27;;;14.50;99.90;;;;;;5071404;28;20417;-75
2022/05/27 05:00:26;;;;;;;2.17;1.50;;;14.60;99.90;;;;;;5053279;28;20421;-76
2022/05/27 05:02:52;;;;;;;2.70;1.50;;;14.50;99.90;;;;;;5036484;28;20473;-76
2022/05/27 05:05:21;;;;;;;7.97;1.80;;;14.60;99.90;;;;;;5053434;28;20410;-76
2022/05/27 05:07:51;;;;;;;1.77;1.50;;;14.70;99.90;;;;;;5071295;28;20445;-76
2022/05/27 05:10:20;;;;;;;14.33;2.53;;;14.80;99.90;;;;;;5053676;28;20425;-76
2022/05/27 05:12:46;;;;;;;3.57;1.80;;;14.80;99.90;;;;;;5071099;28;20630;-76
2022/05/27 05:15:13;;;;;;;2.67;1.40;;;14.80;99.90;;;;;;5071451;28;20929;-76
2022/05/27 05:17:39;;;;;;;3.00;1.70;;;14.80;99.90;;;;;;5071121;28;20513;-75
2022/05/27 05:20:06;;;;;;;1.87;1.53;;;14.70;99.90;;;;;;5071294;28;20420;-76
2022/05/27 05:22:32;;;;;;;1.97;1.40;;;14.80;99.90;;;;;;5052409;28;20484;-76
2022/05/27 05:24:58;;;;;;;4.73;1.83;;;14.90;99.90;;;;;;5053164;28;20426;-76
2022/05/27 05:27:26;;;;;;;11.70;1.73;;;15.00;99.90;;;;;;5052858;28;21082;-76
2022/05/27 05:29:53;;;;;;;4.03;1.80;;;14.90;99.90;;;;;;5053025;28;20421;-76
2022/05/27 05:32:19;;;;;;;2.67;1.80;;;14.90;99.90;;;;;;5053081;28;20516;-75
2022/05/27 05:34:44;;;;;;;3.20;1.70;;;15.00;99.90;;;;;;5070762;28;20493;-75
2022/05/27 05:37:10;;;;;;;3.93;2.27;;;14.90;99.90;;;;;;5053121;28;20418;-80
2022/05/27 05:39:38;;;;;;;3.60;2.17;;;14.90;99.90;;;;;;5071558;28;20183;-80
2022/05/27 05:42:06;;;;;;;2.90;1.90;;;14.90;99.90;;;;;;5070603;28;20268;-80
2022/05/27 05:44:31;;;;;;;7.63;1.80;;;15.00;99.90;;;;;;5052371;28;20433;-80
2022/05/27 05:46:57;;;;;;;4.33;2.10;;;15.10;99.90;;;;;;5052576;28;20418;-81
2022/05/27 05:49:24;;;;;;;2.17;1.70;;;15.10;99.90;;;;;;5070498;28;20208;-81
2022/05/27 05:51:51;;;;;;;2.00;1.60;;;15.10;99.90;;;;;;5052608;28;20425;-81
2022/05/27 05:54:19;;;;;;;3.10;1.73;;;15.20;99.90;;;;;;5052245;28;20448;-80
2022/05/27 05:56:44;;;;;;;4.90;1.77;;;15.30;99.90;;;;;;5070317;28;20499;-79
2022/05/27 05:59:10;;;;;;;2.90;1.67;;;15.40;99.90;;;;;;5070502;28;20508;-80
2022/05/27 06:01:35;;;;;;;6.17;1.70;;;15.50;99.90;;;;;;5070057;28;20183;-80
2022/05/27 06:04:01;;;;;;;3.00;1.63;;;15.70;99.90;;;;;;5035265;28;20224;-80
2022/05/27 06:06:27;;;;;;;3.73;1.70;;;15.80;99.90;;;;;;5035732;28;20207;-80
2022/05/27 06:08:52;;;;;;;4.43;1.53;;;15.80;99.90;;;;;;5069925;28;20186;-78
2022/05/27 06:11:18;;;;;;;5.13;1.70;;;15.90;99.90;;;;;;5070028;28;20282;-78
2022/05/27 06:13:44;;;;;;;8.40;2.20;;;15.90;99.90;;;;;;5069975;28;20350;-79
2022/05/27 06:16:10;;;;;;;4.20;2.13;;;15.80;99.90;;;;;;5069532;28;20193;-78
2022/05/27 06:18:37;;;;;;;2.93;1.53;;;15.80;99.90;;;;;;5050982;28;20425;-79
2022/05/27 06:21:03;;;;;;;3.20;2.20;;;15.80;99.90;;;;;;5069432;28;20850;-78
2022/05/27 06:23:29;;;;;;;5.13;2.13;;;15.80;99.90;;;;;;5068813;28;20522;-79
2022/05/27 06:25:56;;;;;;;3.40;1.77;;;15.90;99.90;;;;;;5068964;28;20419;-78
2022/05/27 06:36:36;;;;;;;3.00;1.90;;;15.80;99.90;;;;;;5068444;28;21001;-79
2022/05/27 06:39:05;;;;;;;4.10;1.90;;;15.90;99.90;;;;;;5050776;28;20430;-78
2022/05/27 06:41:32;;;;;;;3.00;2.00;;;16.00;99.90;;;;;;5068782;28;20816;-78
2022/05/27 06:43:57;;;;;;;3.20;1.77;;;16.00;99.90;;;;;;5049929;28;20831;-79
2022/05/27 06:46:23;;;;;;;5.60;2.10;;;16.10;99.90;;;;;;5068491;28;20431;-79
2022/05/27 06:48:49;;;;;;;2.43;2.10;;;15.90;99.90;;;;;;5050582;28;20188;-79
2022/05/27 06:51:15;;;;;;;3.30;1.90;;;16.00;99.90;;;;;;5068238;28;20608;-78
2022/05/27 06:53:40;;;;;;;4.27;1.87;;;16.00;99.90;;;;;;5050087;28;20907;-78
2022/05/27 06:56:08;;;;;;;2.20;1.80;;;16.10;99.90;;;;;;5070937;28;20194;-79
2022/05/27 06:58:34;;;;;;;7.17;2.00;;;16.20;99.90;;;;;;5072259;28;20290;-80
2022/05/27 07:01:00;;;;;;;2.80;1.63;;;16.20;99.90;;;;;;5054141;28;20526;-79
2022/05/27 07:03:26;;;;;;;2.73;1.67;;;16.30;99.90;;;;;;5047131;28;20276;-78
2022/05/27 07:05:52;;;;;;;5.93;2.00;;;16.30;99.90;;;;;;5092246;28;20439;-79
2022/05/27 07:08:18;;;;;;;8.90;2.10;;;16.40;99.90;;;;;;5091099;28;20200;-79
2022/05/27 07:10:43;;;;;;;2.50;1.80;;;16.40;99.90;;;;;;5060678;28;20412;-79
2022/05/27 07:13:09;;;;;;;2.33;2.00;;;16.40;99.90;;;;;;5049883;28;20853;-80
2022/05/27 07:15:35;;;;;;;8.07;3.60;;;16.40;99.90;;;;;;5053914;28;20204;-80
2022/05/27 07:18:08;;;;;;;7.73;2.63;;;16.60;99.90;;;;;;5050889;28;20929;-80
2022/05/27 07:20:36;;;;;;;16.53;4.60;;;16.50;99.90;;;;;;5069189;28;20193;-79
2022/05/27 07:23:02;;;;;;;5.20;1.63;;;16.80;99.90;;;;;;5034561;28;20477;-79
2022/05/27 07:25:28;;;;;;;3.40;2.27;;;16.80;99.90;;;;;;5050873;28;20427;-79
2022/05/27 07:27:54;;;;;;;3.50;1.90;;;17.00;99.90;;;;;;5068734;28;20950;-80
2022/05/27 07:30:20;;;;;;;13.50;3.47;;;17.00;99.90;;;;;;5051973;28;20272;-80
2022/05/27 07:32:45;;;;;;;5.50;2.70;;;17.00;99.90;;;;;;5069485;28;20210;-80
2022/05/27 07:35:12;;;;;;;4.30;2.23;;;17.10;99.90;;;;;;5051104;28;20505;-80
2022/05/27 07:37:38;;;;;;;3.60;1.40;;;17.00;99.90;;;;;;5069244;28;20797;-80
2022/05/27 07:40:05;;;;;;;6.53;1.83;;;17.00;99.90;;;;;;5051320;28;20434;-80
2022/05/27 07:42:30;;;;;;;29.47;5.90;;;17.10;99.90;;;;;;5067499;28;20276;-80
2022/05/27 07:44:56;;;;;;;10.73;2.90;;;17.10;99.90;;;;;;5049050;28;20520;-80
2022/05/27 07:47:21;;;;;;;8.23;2.53;;;17.20;99.90;;;;;;5048948;28;20652;-81
2022/05/27 07:49:48;;;;;;;2.83;2.00;;;17.20;99.90;;;;;;5030766;28;20218;-81
2022/05/27 07:52:14;;;;;;;3.50;2.10;;;17.20;99.90;;;;;;5030724;28;20233;-79
2022/05/27 07:54:39;;;;;;;2.47;1.83;;;17.00;99.90;;;;;;5048448;28;20421;-80
2022/05/27 07:57:23;;;;;;;81.83;9.97;;;17.10;99.90;;;;;;5047969;28;20428;-79
2022/05/27 08:00:11;;;;;;;9.90;1.47;;;17.00;99.90;;;;;;5048467;28;20186;-79
2022/05/27 08:02:37;;;;;;;5.47;1.73;;;17.10;99.90;;;;;;5048352;28;20479;-78
2022/05/27 08:05:03;;;;;;;4.30;1.70;;;17.20;99.90;;;;;;5048871;28;20436;-79
2022/05/27 08:07:28;;;;;;;2.20;1.80;;;17.20;99.90;;;;;;5048360;28;20192;-78
2022/05/27 08:09:54;;;;;;;3.17;1.50;;;17.10;99.90;;;;;;5030696;28;21010;-79
2022/05/27 08:12:20;;;;;;;6.73;2.20;;;17.20;99.90;;;;;;5048411;28;20182;-79
2022/05/27 08:14:46;;;;;;;4.60;1.90;;;17.20;99.90;;;;;;5030420;28;20671;-79
2022/05/27 08:17:11;;;;;;;3.03;2.10;;;17.20;99.90;;;;;;5030236;28;20194;-79
2022/05/27 08:19:37;;;;;;;4.30;1.73;;;17.30;99.90;;;;;;5029961;28;20612;-79
2022/05/27 08:22:04;;;;;;;2.03;1.67;;;17.30;99.90;;;;;;5029371;28;20909;-78
2022/05/27 08:24:30;;;;;;;2.57;2.00;;;17.40;99.90;;;;;;5029086;28;20225;-78
2022/05/27 08:26:56;;;;;;;3.67;1.67;;;17.40;99.90;;;;;;5047104;28;20419;-78
2022/05/27 08:29:21;;;;;;;1.97;1.50;;;17.50;99.90;;;;;;5047268;28;20433;-78
2022/05/27 08:31:47;;;;;;;4.30;1.73;;;17.70;99.90;;;;;;5047275;28;20266;-79
2022/05/27 08:39:47;;;;;;;4.70;1.67;;;18.00;99.90;;;;;;5047518;28;20878;-78
2022/05/27 08:42:35;;;;;;;3.50;1.67;;;18.00;99.90;;;;;;5046947;28;20476;-78
2022/05/27 08:45:09;;;;;;;4.40;1.83;;;18.00;99.90;;;;;;5047099;28;20452;-79
2022/05/27 08:47:40;;;;;;;6.50;2.37;;;17.90;99.90;;;;;;5046762;28;20472;-78
2022/05/27 08:50:32;;;;;;;2.60;1.47;;;17.70;99.90;;;;;;5047349;28;20430;-79
2022/05/27 08:53:20;;;;;;;7.50;2.30;;;17.60;99.90;;;;;;5029559;28;20456;-77
2022/05/27 08:59:27;;;;;;;4.90;1.80;;;17.50;99.90;;;;;;5048432;28;20415;-75
2022/05/27 09:02:05;;;;;;;2.93;2.50;;;17.60;99.90;;;;;;5050400;28;20503;-75
2022/05/27 09:04:34;;;;;;;5.63;2.00;;;17.60;99.90;;;;;;5050649;28;20462;-75
2022/05/27 09:07:24;;;;;;;3.13;2.13;;;17.60;99.90;;;;;;5050707;28;20457;-76
2022/05/27 09:09:51;;;;;;;3.90;2.47;;;17.60;99.90;;;;;;5050794;28;20423;-75
2022/05/27 09:12:40;;;;;;;2.07;1.80;;;17.60;99.90;;;;;;5050739;28;20434;-75
2022/05/27 09:15:27;;;;;;;3.80;2.23;;;17.60;99.90;;;;;;5050868;28;20410;-78
2022/05/27 09:18:14;;;;;;;3.53;1.80;;;17.80;99.90;;;;;;5051084;28;20782;-77
2022/05/27 09:21:10;;;;;;;3.27;1.67;;;17.90;99.90;;;;;;5050910;28;20465;-77
2022/05/27 09:23:52;;;;;;;5.43;2.13;;;18.00;99.90;;;;;;5032819;28;20486;-77
2022/05/27 09:26:49;;;;;;;3.00;1.97;;;18.10;99.90;;;;;;5050624;28;20502;-77
2022/05/27 09:29:15;;;;;;;7.30;2.13;;;18.30;99.90;;;;;;5023498;28;20437;-77
2022/05/27 09:32:02;;;;;;;5.10;1.90;;;18.30;99.90;;;;;;5050589;28;20426;-77
2022/05/27 09:34:32;;;;;;;6.03;2.00;;;18.30;99.90;;;;;;5050479;28;20597;-77
2022/05/27 09:37:04;;;;;;;2.47;2.27;;;18.40;99.90;;;;;;5032235;28;20428;-77
2022/05/27 09:39:31;;;;;;;2.37;2.10;;;18.70;99.90;;;;;;5034118;28;20521;-77
2022/05/27 09:42:06;;;;;;;3.27;1.83;;;18.60;99.90;;;;;;5051709;28;20493;-77
2022/05/27 09:44:37;;;;;;;5.90;2.27;;;18.70;99.90;;;;;;5069131;28;20469;-78
2022/05/27 09:47:04;;;;;;;3.77;1.67;;;18.80;99.90;;;;;;5070982;28;20429;-77
2022/05/27 09:49:31;;;;;;;2.80;1.90;;;19.00;99.90;;;;;;5052830;28;20432;-77
2022/05/27 09:51:57;;;;;;;2.43;1.90;;;19.00;99.90;;;;;;5053197;28;20876;-77
2022/05/27 09:54:46;;;;;;;3.37;1.77;;;18.90;99.90;;;;;;5070714;28;20437;-77
2022/05/27 09:57:13;;;;;;;5.80;2.17;;;18.80;99.90;;;;;;5052339;28;20199;-77
2022/05/27 09:59:46;;;;;;;4.70;1.53;;;19.10;99.90;;;;;;5070614;28;20486;-77
2022/05/27 10:02:30;;;;;;;7.83;2.23;;;19.70;99.90;;;;;;5070377;28;20429;-78
2022/05/27 10:05:22;;;;;;;8.57;6.73;;;20.10;99.90;;;;;;5035718;28;20789;-78
2022/05/27 10:07:58;;;;;;;283.37;203.73;;;20.80;99.90;;;;;;5052406;28;20527;-78
2022/05/27 10:10:36;;;;;;;41.47;28.77;;;21.10;99.90;;;;;;5050320;28;20472;-79
2022/05/27 10:13:19;;;;;;;3.53;1.90;;;21.40;99.90;;;;;;5069702;28;21343;-80
2022/05/27 10:15:45;;;;;;;2.13;1.80;;;21.40;99.90;;;;;;5069584;28;20418;-80
2022/05/27 10:18:19;;;;;;;2.93;1.77;;;21.40;98.90;;;;;;5051122;28;20432;-79
2022/05/27 10:21:01;;;;;;;4.50;2.17;;;21.60;97.80;;;;;;5069356;28;20512;-80
2022/05/27 10:23:29;;;;;;;5.30;2.17;;;21.80;98.80;;;;;;5068975;28;20473;-79
2022/05/27 10:25:55;;;;;;;3.10;2.10;;;22.20;97.80;;;;;;5051223;28;20425;-80
2022/05/27 10:28:31;;;;;;;1.87;1.50;;;22.40;98.50;;;;;;5034843;28;20435;-79
2022/05/27 10:31:02;;;;;;;1.87;1.57;;;22.60;96.70;;;;;;5069236;28;20258;-80
2022/05/27 10:33:40;;;;;;;2.43;1.40;;;22.90;96.30;;;;;;5069359;28;20490;-78
2022/05/27 10:36:32;;;;;;;3.57;1.37;;;23.00;97.00;;;;;;5069517;28;20795;-79
2022/05/27 10:39:19;;;;;;;6.93;1.63;;;22.70;95.90;;;;;;5051718;28;20461;-79
2022/05/27 10:42:06;;;;;;;3.63;1.60;;;22.40;95.70;;;;;;5069989;28;20791;-78
2022/05/27 10:45:03;;;;;;;1.33;1.20;;;22.30;96.70;;;;;;5069600;28;20474;-79
2022/05/27 10:47:38;;;;;;;3.27;1.30;;;22.00;96.50;;;;;;5069655;28;20413;-79
2022/05/27 10:50:32;;;;;;;3.60;1.37;;;21.90;96.40;;;;;;5051839;28;20421;-79
2022/05/27 10:53:11;;;;;;;1.50;1.40;;;21.40;96.50;;;;;;5069934;28;20437;-79
2022/05/27 10:55:52;;;;;;;3.23;1.80;;;21.50;96.20;;;;;;5069674;28;20456;-79
2022/05/27 11:04:40;;;;;;;3.90;1.43;;;22.40;96.70;;;;;;5069394;28;21109;-79
2022/05/27 11:07:27;;;;;;;2.73;1.70;;;22.90;96.10;;;;;;5051411;28;20429;-78
2022/05/27 11:10:12;;;;;;;3.07;1.70;;;23.30;92.80;;;;;;5069102;28;20475;-79
2022/05/27 11:16:29;;;;;;;3.07;1.30;;;23.70;92.80;;;;;;5039315;28;20426;-79
2022/05/27 11:19:17;;;;;;;1.87;1.30;;;23.80;92.80;;;;;;5069320;28;20942;-78
2022/05/27 11:21:52;;;;;;;8.10;1.47;;;24.10;92.60;;;;;;5050813;28;20503;-79
2022/05/27 11:24:48;;;;;;;2.60;1.90;;;24.40;93.10;;;;;;5068713;28;20513;-79
2022/05/27 11:27:41;;;;;;;1.70;1.20;;;24.50;88.20;;;;;;5051199;28;20478;-79
2022/05/27 11:30:31;;;;;;;4.00;1.17;;;23.80;90.40;;;;;;5068932;28;20407;-79
2022/05/27 11:32:57;;;;;;;4.20;1.60;;;23.20;92.80;;;;;;5068027;28;20446;-79
2022/05/27 11:35:58;;;;;;;1.57;1.30;;;22.90;92.50;;;;;;5067789;28;20922;-79
2022/05/27 11:38:49;;;;;;;2.43;1.43;;;23.40;92.30;;;;;;5067773;28;20999;-79
2022/05/27 11:41:27;;;;;;;2.37;0.93;;;23.90;92.70;;;;;;5050189;28;20435;-79
2022/05/27 11:44:02;;;;;;;3.43;1.20;;;24.10;91.30;;;;;;5068121;28;20509;-79
2022/05/27 11:46:45;;;;;;;2.53;1.30;;;24.00;90.30;;;;;;5050190;28;20418;-79
2022/05/27 11:49:48;;;;;;;2.17;1.30;;;23.40;89.00;;;;;;5049359;28;20456;-79
2022/05/27 11:52:32;;;;;;;1.63;1.07;;;23.10;90.40;;;;;;5062437;28;20426;-79
2022/05/27 11:55:22;;;;;;;2.10;1.30;;;22.80;91.70;;;;;;5049190;28;20433;-79
2022/05/27 11:58:08;;;;;;;1.90;1.30;;;22.50;91.10;;;;;;5067619;28;20502;-79
2022/05/27 12:00:39;;;;;;;4.30;1.20;;;22.30;90.40;;;;;;5067250;28;20421;-79
2022/05/27 12:03:13;;;;;;;1.70;1.20;;;22.50;92.60;;;;;;5067703;28;20470;-79
2022/05/27 12:05:46;;;;;;;1.63;1.20;;;22.30;92.80;;;;;;5049539;28;20426;-78
2022/05/27 12:08:35;;;;;;;1.87;1.27;;;22.10;93.40;;;;;;5032611;28;21140;-78
2022/05/27 12:11:07;;;;;;;2.90;1.00;;;22.30;93.20;;;;;;5049978;28;20425;-79
2022/05/27 12:13:58;;;;;;;2.70;1.60;;;22.20;93.30;;;;;;5068032;28;20445;-79
2022/05/27 12:16:31;;;;;;;5.47;1.00;;;22.60;93.10;;;;;;5067925;28;20447;-78
2022/05/27 12:19:00;;;;;;;3.47;1.23;;;22.80;92.70;;;;;;5068495;28;20845;-79
2022/05/27 12:21:38;;;;;;;1.67;1.07;;;22.60;92.00;;;;;;5070223;28;20943;-78
2022/05/27 12:24:14;;;;;;;3.13;1.27;;;22.50;93.00;;;;;;5068541;28;20460;-79
2022/05/27 12:26:41;;;;;;;2.47;1.00;;;22.30;93.30;;;;;;5069160;28;20407;-80
2022/05/27 12:29:12;;;;;;;1.73;1.23;;;22.10;92.00;;;;;;5050981;28;20474;-79
2022/05/27 12:31:40;;;;;;;2.03;0.90;;;22.30;93.50;;;;;;5070914;28;20506;-80
2022/05/27 12:34:28;;;;;;;2.63;1.30;;;22.50;93.50;;;;;;5055323;28;20449;-79
2022/05/27 12:36:55;;;;;;;2.60;0.93;;;22.60;92.50;;;;;;5074134;28;20478;-81
2022/05/27 12:39:30;;;;;;;1.27;1.10;;;22.50;92.50;;;;;;5074518;28;20417;-80
2022/05/27 12:42:19;;;;;;;1.40;1.00;;;22.30;92.70;;;;;;5074427;28;20415;-79
2022/05/27 12:44:47;;;;;;;9.57;1.33;;;21.90;93.00;;;;;;5073142;28;21017;-79
2022/05/27 12:47:25;;;;;;;3.20;0.90;;;21.90;93.50;;;;;;5072995;28;20414;-79
2022/05/27 12:50:06;;;;;;;5.13;1.57;;;22.20;94.60;;;;;;5054815;28;20425;-79
2022/05/27 12:52:32;;;;;;;7.20;1.40;;;22.80;93.20;;;;;;5072031;28;20547;-80
2022/05/27 12:55:12;;;;;;;3.43;1.00;;;23.10;94.10;;;;;;5071594;28;20883;-79
2022/05/27 13:00:56;;;;;;;2.60;1.17;;;23.70;92.40;;;;;;5071994;28;21149;-80
2022/05/27 13:03:34;;;;;;;1.43;0.90;;;23.80;91.40;;;;;;5071199;28;20466;-79
2022/05/27 13:06:14;;;;;;;1.50;1.00;;;23.70;92.20;;;;;;5053960;28;20421;-79
2022/05/27 13:08:42;;;;;;;4.93;1.20;;;23.90;90.50;;;;;;5072215;28;20425;-80
2022/05/27 13:11:23;;;;;;;1.53;1.17;;;24.00;91.80;;;;;;5072157;28;21156;-79
2022/05/27 13:14:16;;;;;;;2.63;1.30;;;24.10;91.40;;;;;;5072373;28;20525;-79
2022/05/27 13:17:07;;;;;;;1.93;1.10;;;23.80;90.40;;;;;;5072831;28;20567;-79
2022/05/27 13:19:49;;;;;;;8.43;1.17;;;23.40;91.20;;;;;;5027387;28;20432;-80
2022/05/27 13:22:49;;;;;;;2.10;1.10;;;23.20;91.30;;;;;;5071645;28;20423;-80
2022/05/27 13:25:24;;;;;;;1.67;1.10;;;23.00;92.20;;;;;;5054987;28;20426;-78
2022/05/27 13:27:55;;;;;;;7.03;1.90;;;22.80;92.00;;;;;;5054190;28;20537;-80
2022/05/27 13:30:24;;;;;;;3.47;1.13;;;22.70;92.20;;;;;;5072825;28;20432;-79
2022/05/27 13:33:05;;;;;;;1.40;1.30;;;22.40;92.50;;;;;;5053285;28;21128;-80
2022/05/27 13:35:43;;;;;;;2.90;1.10;;;22.30;93.20;;;;;;5072217;28;20949;-79
2022/05/27 13:38:11;;;;;;;3.10;1.23;;;22.00;93.40;;;;;;5070763;28;20409;-79
2022/05/27 13:40:38;;;;;;;3.73;1.23;;;21.60;93.90;;;;;;5071374;28;20464;-79
2022/05/27 13:43:23;;;;;;;3.33;1.10;;;21.60;94.90;;;;;;5052491;28;20481;-78
2022/05/27 13:46:01;;;;;;;21.13;1.80;;;21.50;94.60;;;;;;5053232;28;20911;-79
2022/05/27 13:48:32;;;;;;;2.70;1.10;;;21.40;94.70;;;;;;5054080;28;20425;-79
2022/05/27 13:51:08;;;;;;;2.13;1.53;;;21.20;95.20;;;;;;5071864;28;21320;-79
2022/05/27 13:53:37;;;;;;;2.83;1.10;;;21.00;95.50;;;;;;5052529;28;20449;-79
2022/05/27 13:56:34;;;;;;;7.00;1.10;;;20.90;95.50;;;;;;5071648;28;20467;-79